Time;durP1;ratioP1;P1;durP2;ratioP2;P2;SDS_P1;SDS_P2;PMS_P1;PMS_P2;Temp;Humidity;BMP_temperature;BMP_pressure;BME280_temperature;BME280_humidity;BME280_pressure;Samples;Min_cycle;Max_cycle;Signal;HPM_P1;HPM_P2
2022/04/30 00:01:39;;;;;;;19.87;14.40;;;;;;;10.59;100.00;99826.50;5049528;28;20317;-77
2022/04/30 00:04:08;;;;;;;21.03;13.37;;;;;;;10.87;100.00;99842.63;5053837;28;20221;-78
2022/04/30 00:06:37;;;;;;;23.83;14.83;;;;;;;10.88;100.00;99865.53;5050594;28;20288;-78
2022/04/30 00:09:06;;;;;;;23.80;14.70;;;;;;;11.06;100.00;99865.47;5051652;28;20223;-78
2022/04/30 00:11:41;;;;;;;20.57;14.77;;;;;;;10.65;100.00;99865.06;5052033;28;20200;-78
2022/04/30 00:14:09;;;;;;;20.73;14.70;;;;;;;11.13;100.00;99867.72;5049737;28;20193;-77
2022/04/30 00:16:38;;;;;;;19.87;13.60;;;;;;;11.15;100.00;99859.66;5026217;28;20194;-77
2022/04/30 00:19:07;;;;;;;21.93;14.60;;;;;;;11.34;100.00;99863.00;5027838;28;20197;-76
2022/04/30 00:21:35;;;;;;;20.47;14.70;;;;;;;11.30;100.00;99866.78;5024961;28;20201;-78
2022/04/30 00:24:04;;;;;;;22.93;14.90;;;;;;;11.29;100.00;99857.13;4945093;29;20204;-78
2022/04/30 00:26:33;;;;;;;21.60;14.20;;;;;;;11.28;100.00;99860.69;4949530;29;20189;-78
2022/04/30 00:29:03;;;;;;;22.33;15.03;;;;;;;11.07;100.00;99851.28;4947240;29;20447;-78
2022/04/30 00:31:34;;;;;;;19.63;14.90;;;;;;;10.64;100.00;99837.72;4948627;29;20279;-78
2022/04/30 00:34:04;;;;;;;22.97;14.87;;;;;;;10.69;100.00;99838.31;4955320;28;20725;-78
2022/04/30 00:36:32;;;;;;;23.30;15.50;;;;;;;10.77;100.00;99845.84;4987453;28;20509;-78
2022/04/30 00:39:01;;;;;;;22.67;15.73;;;;;;;10.79;100.00;99843.97;4984253;28;20206;-78
2022/04/30 00:41:33;;;;;;;25.20;16.17;;;;;;;10.64;100.00;99839.50;4991521;28;20194;-78
2022/04/30 00:44:03;;;;;;;23.40;15.40;;;;;;;10.53;100.00;99846.22;4989530;28;20201;-78
2022/04/30 00:46:32;;;;;;;24.63;16.00;;;;;;;10.49;100.00;99849.97;4986341;28;20203;-77
2022/04/30 00:49:02;;;;;;;22.80;16.60;;;;;;;10.58;100.00;99844.19;5023555;28;20193;-78
2022/04/30 00:51:30;;;;;;;24.80;16.77;;;;;;;10.54;100.00;99857.69;5043296;28;20200;-77
2022/04/30 00:53:58;;;;;;;25.93;17.27;;;;;;;10.38;100.00;99841.72;5048065;28;20196;-77
2022/04/30 00:56:29;;;;;;;20.83;16.83;;;;;;;10.40;100.00;99833.69;5009485;28;20202;-78
2022/04/30 00:58:57;;;;;;;26.53;16.47;;;;;;;10.50;100.00;99838.44;5008437;28;20194;-78
2022/04/30 01:01:36;;;;;;;23.70;17.07;;;;;;;10.25;100.00;99828.28;5005758;28;20190;-78
2022/04/30 01:04:07;;;;;;;25.00;17.07;;;;;;;10.19;100.00;99812.66;4999973;28;20236;-78
2022/04/30 01:06:50;;;;;;;23.53;17.43;;;;;;;10.17;100.00;99801.31;5008731;28;20277;-77
2022/04/30 01:09:20;;;;;;;24.33;17.63;;;;;;;10.27;100.00;99807.00;5009626;28;20214;-78
2022/04/30 01:11:56;;;;;;;21.40;17.37;;;;;;;10.33;100.00;99801.41;5006981;28;20285;-77
2022/04/30 01:14:29;;;;;;;24.67;17.80;;;;;;;10.37;100.00;99805.59;4943875;28;20247;-77
2022/04/30 01:16:59;;;;;;;24.17;18.57;;;;;;;10.35;100.00;99812.78;4964563;28;20207;-78
2022/04/30 01:19:28;;;;;;;25.97;17.50;;;;;;;10.36;100.00;99797.72;4969001;28;20211;-77
2022/04/30 01:21:59;;;;;;;23.77;16.60;;;;;;;10.29;100.00;99790.09;4970912;28;20339;-77
2022/04/30 01:24:30;;;;;;;21.40;17.33;;;;;;;10.20;100.00;99779.97;4970258;28;20230;-77
2022/04/30 01:27:00;;;;;;;20.43;16.83;;;;;;;10.30;100.00;99780.38;4966626;28;20202;-77
2022/04/30 01:29:32;;;;;;;21.00;16.77;;;;;;;10.29;100.00;99768.06;4968868;28;20216;-78
2022/04/30 01:37:37;;;;;;;19.67;15.93;;;;;;;10.23;100.00;99760.44;5052168;28;20247;-77
2022/04/30 01:40:15;;;;;;;22.77;17.57;;;;;;;10.20;100.00;99756.13;5064839;28;20192;-77
2022/04/30 01:42:47;;;;;;;22.83;17.07;;;;;;;10.10;100.00;99754.06;5066852;28;20208;-77
2022/04/30 01:45:18;;;;;;;22.10;16.63;;;;;;;10.03;100.00;99761.44;5067537;28;20192;-78
2022/04/30 01:47:50;;;;;;;22.93;17.27;;;;;;;10.03;100.00;99770.25;5031147;28;20199;-77
2022/04/30 01:50:18;;;;;;;22.77;17.30;;;;;;;10.09;100.00;99779.66;4934608;28;20701;-77
2022/04/30 01:52:47;;;;;;;19.37;16.13;;;;;;;10.12;100.00;99790.09;4984885;28;20198;-78
2022/04/30 01:55:32;;;;;;;19.90;15.73;;;;;;;10.23;100.00;99782.50;4985926;28;20199;-78
2022/04/30 01:58:05;;;;;;;23.43;16.43;;;;;;;10.18;100.00;99776.53;4981931;28;20208;-77
2022/04/30 02:00:35;;;;;;;19.80;15.10;;;;;;;10.36;100.00;99776.56;4970794;28;20204;-78
2022/04/30 02:03:07;;;;;;;19.10;15.57;;;;;;;10.46;100.00;99775.13;4974621;28;20202;-78
2022/04/30 02:05:38;;;;;;;21.60;15.87;;;;;;;10.37;100.00;99779.09;4971030;28;20219;-77
2022/04/30 02:08:09;;;;;;;17.70;14.90;;;;;;;10.43;100.00;99767.34;4990713;28;20281;-78
2022/04/30 02:10:42;;;;;;;20.13;16.10;;;;;;;10.45;100.00;99761.03;5027012;28;20221;-78
2022/04/30 02:13:20;;;;;;;19.00;15.40;;;;;;;10.27;100.00;99768.16;5029331;28;20190;-78
2022/04/30 02:15:51;;;;;;;21.30;16.17;;;;;;;10.15;100.00;99770.56;5028131;28;20280;-78
2022/04/30 02:18:25;;;;;;;19.97;16.17;;;;;;;10.16;100.00;99765.19;5048515;28;20209;-77
2022/04/30 02:20:57;;;;;;;22.03;17.33;;;;;;;10.22;100.00;99762.22;4958429;28;20295;-78
2022/04/30 02:23:26;;;;;;;18.40;15.87;;;;;;;10.25;100.00;99772.69;4971064;28;20239;-78
2022/04/30 02:26:02;;;;;;;18.53;15.17;;;;;;;10.34;100.00;99774.00;4966677;28;20204;-77
2022/04/30 02:28:36;;;;;;;19.43;16.27;;;;;;;10.47;100.00;99771.53;4971030;28;20207;-77
2022/04/30 02:31:09;;;;;;;22.33;18.60;;;;;;;10.41;100.00;99763.91;4973169;28;20237;-78
2022/04/30 02:33:39;;;;;;;22.17;17.20;;;;;;;10.37;100.00;99760.56;4973956;28;20221;-78
2022/04/30 02:36:08;;;;;;;21.30;17.77;;;;;;;10.51;100.00;99762.47;4974294;28;20208;-78
2022/04/30 02:38:42;;;;;;;22.90;17.73;;;;;;;10.49;100.00;99753.75;4992077;28;20201;-77
2022/04/30 02:41:21;;;;;;;22.50;17.20;;;;;;;10.65;100.00;99762.59;5019375;28;20203;-78
2022/04/30 02:43:51;;;;;;;20.07;16.77;;;;;;;10.42;100.00;99750.59;5029627;28;20308;-78
2022/04/30 02:46:21;;;;;;;20.97;17.10;;;;;;;10.49;100.00;99753.75;4973522;28;20199;-78
2022/04/30 02:48:52;;;;;;;23.33;17.93;;;;;;;10.31;100.00;99750.28;4971070;28;20687;-78
2022/04/30 02:51:21;;;;;;;22.40;17.27;;;;;;;10.19;100.00;99751.78;4970968;28;20226;-77
2022/04/30 02:53:54;;;;;;;21.00;16.67;;;;;;;10.12;100.00;99749.53;4964065;28;20295;-78
2022/04/30 02:56:25;;;;;;;22.77;18.07;;;;;;;10.05;100.00;99746.38;4969045;28;20211;-77
2022/04/30 03:01:42;;;;;;;24.17;16.67;;;;;;;10.08;100.00;99743.56;4981129;28;20286;-77
2022/04/30 03:04:10;;;;;;;21.57;16.30;;;;;;;10.09;100.00;99737.31;4988605;28;20312;-78
2022/04/30 03:06:40;;;;;;;20.00;16.20;;;;;;;10.08;100.00;99748.84;4984957;28;20203;-78
2022/04/30 03:09:10;;;;;;;20.90;16.23;;;;;;;10.12;100.00;99741.59;4989067;28;20278;-78
2022/04/30 03:11:42;;;;;;;18.03;14.73;;;;;;;9.91;100.00;99739.13;4990089;28;20222;-78
2022/04/30 03:14:13;;;;;;;20.87;15.43;;;;;;;9.73;100.00;99737.44;4988498;28;20321;-77
2022/04/30 03:22:16;;;;;;;18.17;14.87;;;;;;;9.95;100.00;99738.06;5055876;28;20208;-78
2022/04/30 03:24:51;;;;;;;20.60;15.63;;;;;;;9.73;100.00;99733.00;5049282;28;20196;-77
2022/04/30 03:27:26;;;;;;;20.60;15.97;;;;;;;9.78;100.00;99729.28;5049941;28;20197;-78
2022/04/30 03:30:03;;;;;;;20.67;15.43;;;;;;;9.82;100.00;99729.03;5070246;28;20246;-78
2022/04/30 03:32:32;;;;;;;19.63;15.00;;;;;;;9.84;100.00;99739.53;5072077;28;20216;-77
2022/04/30 03:35:04;;;;;;;19.57;15.43;;;;;;;9.95;100.00;99735.41;5066143;28;20193;-78
2022/04/30 03:37:33;;;;;;;23.67;15.30;;;;;;;9.95;100.00;99730.13;5067038;28;20188;-78
2022/04/30 03:40:05;;;;;;;20.33;14.60;;;;;;;9.79;100.00;99731.00;5064824;28;20685;-78
2022/04/30 03:42:36;;;;;;;17.73;14.57;;;;;;;9.80;100.00;99732.69;5065912;28;20224;-77
2022/04/30 03:45:06;;;;;;;17.77;14.00;;;;;;;9.70;100.00;99735.81;5064329;28;20196;-78
2022/04/30 03:47:34;;;;;;;18.73;14.33;;;;;;;9.97;100.00;99728.25;5060113;28;20270;-78
2022/04/30 03:50:03;;;;;;;18.10;14.17;;;;;;;9.69;100.00;99736.75;4992305;28;20203;-78
2022/04/30 03:52:34;;;;;;;16.40;13.53;;;;;;;9.74;100.00;99736.50;4888595;29;20225;-77
2022/04/30 03:55:04;;;;;;;18.20;13.30;;;;;;;9.89;100.00;99738.38;4933147;28;20205;-78
2022/04/30 03:57:32;;;;;;;16.03;13.50;;;;;;;9.73;100.00;99748.00;4928592;29;20197;-78
2022/04/30 04:00:04;;;;;;;17.90;13.67;;;;;;;9.68;100.00;99739.47;4927702;29;20201;-78
2022/04/30 04:02:33;;;;;;;18.53;13.03;;;;;;;9.66;100.00;99744.84;4930594;29;20197;-78
2022/04/30 04:05:02;;;;;;;17.03;11.77;;;;;;;9.38;100.00;99741.88;4913231;29;20235;-78
2022/04/30 04:07:32;;;;;;;21.37;13.10;;;;;;;9.49;100.00;99736.06;4939476;28;20191;-77
2022/04/30 04:10:00;;;;;;;18.47;13.13;;;;;;;9.20;100.00;99727.78;4965992;28;20204;-78
2022/04/30 04:12:38;;;;;;;17.87;12.70;;;;;;;9.38;100.00;99737.44;5030628;28;20225;-78
2022/04/30 04:17:59;;;;;;;17.23;12.77;;;;;;;9.23;100.00;99729.41;5031327;28;20209;-78
2022/04/30 04:20:28;;;;;;;18.63;13.70;;;;;;;9.25;100.00;99732.81;4968321;28;20693;-78
2022/04/30 04:23:01;;;;;;;18.87;12.87;;;;;;;9.22;100.00;99732.97;4972861;28;20199;-78
2022/04/30 04:28:19;;;;;;;17.87;12.77;;;;;;;9.26;100.00;99723.97;4994574;28;20238;-78
2022/04/30 04:30:50;;;;;;;22.10;13.70;;;;;;;9.14;100.00;99723.63;5007652;28;20273;-78
2022/04/30 04:33:19;;;;;;;17.07;13.17;;;;;;;9.16;100.00;99726.19;5004556;28;20233;-78
2022/04/30 04:35:48;;;;;;;19.13;12.87;;;;;;;9.01;100.00;99724.31;4933401;29;20208;-77
2022/04/30 04:38:18;;;;;;;16.70;12.83;;;;;;;8.83;100.00;99726.91;4948458;28;20218;-78
2022/04/30 04:40:46;;;;;;;15.80;12.87;;;;;;;8.87;100.00;99727.59;4987631;28;20187;-78
2022/04/30 04:43:15;;;;;;;17.77;13.23;;;;;;;8.99;100.00;99732.31;4989381;28;20214;-78
2022/04/30 04:45:46;;;;;;;17.27;13.67;;;;;;;8.70;100.00;99733.72;4991697;28;20203;-78
2022/04/30 04:48:17;;;;;;;18.20;13.10;;;;;;;8.60;100.00;99741.22;4989466;28;20191;-78
2022/04/30 04:50:46;;;;;;;19.23;13.90;;;;;;;8.69;100.00;99739.06;4986778;28;20274;-77
2022/04/30 04:53:15;;;;;;;17.13;13.27;;;;;;;8.92;100.00;99743.25;4987618;28;20219;-78
2022/04/30 04:55:44;;;;;;;19.40;13.90;;;;;;;8.74;100.00;99737.06;4984639;28;20278;-78
2022/04/30 04:58:13;;;;;;;21.77;13.33;;;;;;;8.60;100.00;99753.56;4991264;28;20225;-77
2022/04/30 05:00:41;;;;;;;18.87;13.30;;;;;;;8.72;100.00;99752.97;5024107;28;20201;-77
2022/04/30 05:03:12;;;;;;;16.97;13.40;;;;;;;8.58;100.00;99743.03;5047817;28;20199;-77
2022/04/30 05:05:45;;;;;;;17.03;13.97;;;;;;;8.46;100.00;99756.81;5052273;28;20657;-77
2022/04/30 05:08:16;;;;;;;18.17;14.30;;;;;;;8.52;100.00;99753.06;5015396;28;20188;-78
2022/04/30 05:10:44;;;;;;;19.17;14.77;;;;;;;8.61;100.00;99755.28;5049106;28;20196;-78
2022/04/30 05:13:16;;;;;;;20.17;14.37;;;;;;;8.47;100.00;99755.88;5049040;28;20217;-77
2022/04/30 05:15:46;;;;;;;21.97;14.07;;;;;;;8.44;100.00;99761.31;5046936;28;20191;-78
2022/04/30 05:18:14;;;;;;;19.83;14.50;;;;;;;8.48;100.00;99762.03;5053191;28;20201;-77
2022/04/30 05:20:45;;;;;;;20.53;14.57;;;;;;;8.40;100.00;99767.66;5047793;28;20189;-78
2022/04/30 05:23:14;;;;;;;19.93;14.33;;;;;;;8.26;100.00;99768.25;5049989;28;20197;-78
2022/04/30 05:25:43;;;;;;;18.07;13.90;;;;;;;8.43;100.00;99772.81;5051465;28;20193;-77
2022/04/30 05:28:12;;;;;;;19.33;14.27;;;;;;;8.39;100.00;99773.00;5050651;28;20201;-78
2022/04/30 05:30:41;;;;;;;19.10;13.90;;;;;;;8.52;100.00;99782.09;5053361;28;20240;-78
2022/04/30 05:33:10;;;;;;;18.90;14.43;;;;;;;8.47;100.00;99777.00;5053694;28;20217;-78
2022/04/30 05:35:39;;;;;;;19.53;14.67;;;;;;;8.48;100.00;99778.72;5010928;28;20198;-78
2022/04/30 05:38:10;;;;;;;24.50;14.57;;;;;;;8.60;100.00;99780.81;5014528;28;20202;-77
2022/04/30 05:40:39;;;;;;;20.87;14.90;;;;;;;8.51;100.00;99783.88;5009188;28;20206;-78
2022/04/30 05:43:08;;;;;;;17.53;13.43;;;;;;;8.55;100.00;99779.31;5011807;28;20198;-77
2022/04/30 05:45:38;;;;;;;19.23;14.43;;;;;;;8.39;100.00;99781.75;4993145;28;20210;-77
2022/04/30 05:48:08;;;;;;;18.90;13.87;;;;;;;8.42;100.00;99781.66;4992365;28;20195;-77
2022/04/30 05:50:36;;;;;;;18.90;14.23;;;;;;;8.64;100.00;99778.03;4984568;28;20203;-77
2022/04/30 05:53:07;;;;;;;21.77;14.80;;;;;;;8.73;100.00;99786.38;5001226;28;20221;-78
2022/04/30 05:55:39;;;;;;;20.13;14.53;;;;;;;8.75;100.00;99779.22;5032690;28;20217;-77
2022/04/30 05:58:09;;;;;;;16.83;14.17;;;;;;;8.71;100.00;99782.97;5031907;28;20205;-77
2022/04/30 06:00:37;;;;;;;19.33;14.10;;;;;;;8.52;100.00;99787.38;5031517;28;20272;-77
2022/04/30 06:03:10;;;;;;;17.83;14.93;;;;;;;8.63;100.00;99798.28;4981388;28;20276;-77
2022/04/30 06:05:39;;;;;;;21.40;14.53;;;;;;;8.60;100.00;99791.38;5014297;28;20207;-77
2022/04/30 06:08:08;;;;;;;19.60;14.80;;;;;;;8.70;100.00;99790.97;5028409;28;20206;-77
2022/04/30 06:10:41;;;;;;;19.37;13.97;;;;;;;8.70;100.00;99796.25;5025912;28;20688;-77
2022/04/30 06:13:11;;;;;;;20.30;14.50;;;;;;;8.55;100.00;99792.50;5028732;28;20324;-77
2022/04/30 06:15:39;;;;;;;19.13;14.57;;;;;;;8.57;100.00;99793.28;5032830;28;20336;-77
2022/04/30 06:18:09;;;;;;;17.27;14.20;;;;;;;8.54;100.00;99789.00;5050261;28;20263;-77
2022/04/30 06:20:37;;;;;;;17.17;14.00;;;;;;;8.42;100.00;99800.13;5054334;28;20208;-77
2022/04/30 06:23:06;;;;;;;18.97;14.03;;;;;;;8.62;100.00;99798.38;5055366;28;20204;-77
2022/04/30 06:25:36;;;;;;;18.73;14.30;;;;;;;8.33;100.00;99804.00;5049201;28;20228;-77
2022/04/30 06:28:06;;;;;;;19.63;13.77;;;;;;;8.57;100.00;99809.13;5054889;28;20228;-76
2022/04/30 06:30:39;;;;;;;17.43;14.20;;;;;;;8.45;100.00;99807.03;5052469;28;20233;-77
2022/04/30 06:33:13;;;;;;;20.40;15.07;;;;;;;8.41;100.00;99808.97;5035925;28;20226;-78
2022/04/30 06:35:41;;;;;;;19.77;15.23;;;;;;;8.44;100.00;99806.19;5052701;28;20609;-76
2022/04/30 06:38:11;;;;;;;17.60;14.50;;;;;;;8.39;100.00;99812.59;5049724;28;20189;-77
2022/04/30 06:40:42;;;;;;;20.80;14.20;;;;;;;8.37;100.00;99809.16;5053658;28;20189;-77
2022/04/30 06:43:13;;;;;;;16.90;13.77;;;;;;;8.54;100.00;99809.28;5056409;28;20280;-76
2022/04/30 06:45:42;;;;;;;19.33;14.57;;;;;;;8.34;100.00;99815.41;5050162;28;20276;-76
2022/04/30 06:48:16;;;;;;;17.23;13.97;;;;;;;8.40;100.00;99814.34;5053002;28;20204;-77
2022/04/30 06:50:47;;;;;;;19.97;14.23;;;;;;;8.35;100.00;99816.31;5013035;28;20202;-77
2022/04/30 06:58:54;;;;;;;18.63;13.87;;;;;;;8.40;100.00;99815.19;5012525;28;20205;-76
2022/04/30 07:01:29;;;;;;;20.57;14.67;;;;;;;8.59;100.00;99815.22;5001781;28;20206;-76
2022/04/30 07:04:04;;;;;;;19.67;14.90;;;;;;;8.37;100.00;99812.66;5010228;28;20226;-76
2022/04/30 07:06:33;;;;;;;21.50;15.47;;;;;;;8.56;100.00;99820.63;5013807;28;20194;-76
2022/04/30 07:09:04;;;;;;;26.57;16.87;;;;;;;8.52;100.00;99819.91;5037181;28;20213;-76
2022/04/30 07:11:34;;;;;;;23.63;16.37;;;;;;;8.53;100.00;99821.63;5064368;28;20213;-77
2022/04/30 07:14:11;;;;;;;20.73;14.20;;;;;;;8.54;100.00;99822.47;5063513;28;20581;-77
2022/04/30 07:16:40;;;;;;;17.97;13.53;;;;;;;8.58;100.00;99826.69;5052834;28;20262;-77
2022/04/30 07:19:12;;;;;;;20.10;14.73;;;;;;;8.86;100.00;99824.50;5054273;28;20205;-77
2022/04/30 07:21:41;;;;;;;20.80;14.33;;;;;;;8.72;100.00;99818.16;5050039;28;20380;-77
2022/04/30 07:24:10;;;;;;;14.90;12.87;;;;;;;8.74;100.00;99826.84;5055509;28;20189;-78
2022/04/30 07:26:38;;;;;;;22.23;17.03;;;;;;;8.92;100.00;99831.28;5051514;28;20204;-77
2022/04/30 07:29:08;;;;;;;18.60;14.63;;;;;;;9.02;100.00;99822.00;5053043;28;20197;-77
2022/04/30 07:31:37;;;;;;;15.80;12.70;;;;;;;9.08;100.00;99827.00;5016993;28;20221;-77
2022/04/30 07:34:09;;;;;;;14.47;11.67;;;;;;;9.04;100.00;99821.94;5052522;28;20224;-77
2022/04/30 07:36:38;;;;;;;13.57;10.60;;;;;;;8.90;100.00;99830.50;5055264;28;20200;-77
2022/04/30 07:39:08;;;;;;;17.93;12.30;;;;;;;8.95;100.00;99832.94;5050690;28;20213;-77
2022/04/30 07:41:36;;;;;;;15.50;11.27;;;;;;;8.81;100.00;99829.16;5016640;28;20209;-77
2022/04/30 07:44:10;;;;;;;12.77;10.33;;;;;;;8.68;100.00;99835.03;5046526;28;20228;-77
2022/04/30 07:46:38;;;;;;;13.60;10.73;;;;;;;8.59;100.00;99842.47;5015666;28;20708;-77
2022/04/30 07:49:07;;;;;;;16.10;11.33;;;;;;;8.54;100.00;99836.53;4999164;28;20186;-77
2022/04/30 07:51:42;;;;;;;15.27;11.03;;;;;;;8.67;100.00;99846.53;5027546;28;20273;-77
2022/04/30 07:54:10;;;;;;;14.53;11.30;;;;;;;8.49;100.00;99848.22;5025168;28;20249;-77
2022/04/30 07:56:41;;;;;;;15.80;11.93;;;;;;;8.54;100.00;99849.72;5026408;28;20205;-77
2022/04/30 07:59:12;;;;;;;15.37;11.43;;;;;;;8.51;100.00;99846.38;5033559;28;20186;-78
2022/04/30 08:01:44;;;;;;;15.53;12.23;;;;;;;8.35;100.00;99850.63;5026852;28;20214;-77
2022/04/30 08:04:15;;;;;;;14.97;11.30;;;;;;;8.38;100.00;99856.59;5031581;28;20225;-78
2022/04/30 08:06:43;;;;;;;17.63;12.37;;;;;;;8.51;100.00;99852.53;5034671;28;20189;-77
2022/04/30 08:09:12;;;;;;;18.23;12.43;;;;;;;8.26;100.00;99857.97;5053517;28;20205;-77
2022/04/30 08:11:41;;;;;;;15.70;12.40;;;;;;;8.22;100.00;99860.81;5054759;28;20193;-77
2022/04/30 08:14:10;;;;;;;16.33;11.87;;;;;;;8.20;100.00;99866.16;5052976;28;20219;-77
2022/04/30 08:16:39;;;;;;;15.23;11.37;;;;;;;8.29;100.00;99862.25;5055771;28;20208;-78
2022/04/30 08:19:08;;;;;;;15.43;13.07;;;;;;;8.22;100.00;99860.81;5053367;28;20200;-78
2022/04/30 08:21:37;;;;;;;18.03;12.93;;;;;;;8.18;100.00;99865.34;5030844;28;20204;-77
2022/04/30 08:24:27;;;;;;;18.47;13.20;;;;;;;8.00;100.00;99867.00;5052366;28;20197;-78
2022/04/30 08:26:56;;;;;;;17.17;12.90;;;;;;;7.99;100.00;99865.28;5052820;28;20216;-77
2022/04/30 08:29:26;;;;;;;18.33;13.10;;;;;;;7.86;100.00;99861.44;5048654;28;20280;-77
2022/04/30 08:31:56;;;;;;;16.90;12.40;;;;;;;8.07;100.00;99859.69;5052827;28;20206;-77
2022/04/30 08:34:24;;;;;;;17.50;13.47;;;;;;;8.03;100.00;99858.97;5054045;28;20235;-77
2022/04/30 08:36:53;;;;;;;19.53;12.60;;;;;;;8.04;100.00;99858.03;5052755;28;20193;-78
2022/04/30 08:39:22;;;;;;;18.17;13.37;;;;;;;8.18;100.00;99853.94;5046931;28;20204;-77
2022/04/30 08:41:51;;;;;;;17.97;12.90;;;;;;;8.12;100.00;99851.59;5053681;28;20197;-77
2022/04/30 08:44:20;;;;;;;18.43;13.33;;;;;;;8.15;100.00;99860.22;5052571;28;20276;-77
2022/04/30 08:46:50;;;;;;;16.43;13.47;;;;;;;8.15;100.00;99857.59;5018748;28;20192;-77
2022/04/30 08:49:21;;;;;;;18.30;13.17;;;;;;;8.11;100.00;99866.56;5050024;28;20275;-77
2022/04/30 08:51:49;;;;;;;19.77;13.50;;;;;;;8.10;100.00;99864.81;5053457;28;20196;-77
2022/04/30 08:54:19;;;;;;;16.27;13.27;;;;;;;8.23;100.00;99850.19;5050058;28;20216;-77
2022/04/30 08:56:54;;;;;;;17.00;13.57;;;;;;;8.24;100.00;99866.88;5053839;28;20197;-77
2022/04/30 08:59:24;;;;;;;19.20;13.80;;;;;;;8.47;100.00;99873.81;5050285;28;20199;-77
2022/04/30 09:01:55;;;;;;;19.90;14.23;;;;;;;8.63;100.00;99882.81;5049694;28;20201;-76
2022/04/30 09:04:26;;;;;;;16.90;13.73;;;;;;;8.48;100.00;99875.53;5053808;28;20197;-77
2022/04/30 09:06:56;;;;;;;17.23;13.43;;;;;;;8.37;100.00;99872.50;5057634;28;20239;-77
2022/04/30 09:09:28;;;;;;;16.93;12.80;;;;;;;8.61;100.00;99879.38;5059305;28;20193;-77
2022/04/30 09:12:08;;;;;;;17.23;13.10;;;;;;;8.43;100.00;99867.84;5059073;28;20197;-77
2022/04/30 09:14:38;;;;;;;18.40;12.37;;;;;;;8.50;100.00;99871.06;5056068;28;20228;-77
2022/04/30 09:17:10;;;;;;;14.80;12.00;;;;;;;8.63;100.00;99871.38;5056406;28;20207;-77
2022/04/30 09:19:52;;;;;;;19.87;13.87;;;;;;;8.51;100.00;99868.38;5050120;28;20230;-77
2022/04/30 09:22:39;;;;;;;16.73;12.17;;;;;;;8.48;100.00;99878.19;5054249;28;20208;-77
2022/04/30 09:25:15;;;;;;;16.87;12.47;;;;;;;8.59;100.00;99875.94;5057477;28;20200;-77
2022/04/30 09:28:03;;;;;;;17.20;12.70;;;;;;;8.44;100.00;99863.41;5058642;28;20710;-76
2022/04/30 09:30:32;;;;;;;16.03;12.47;;;;;;;8.60;100.00;99873.25;5056048;28;20700;-77
2022/04/30 09:33:04;;;;;;;15.17;12.53;;;;;;;8.71;100.00;99870.13;5053513;28;20282;-76
2022/04/30 09:38:26;;;;;;;17.60;12.13;;;;;;;8.70;100.00;99864.91;5053336;28;20201;-76
2022/04/30 09:40:56;;;;;;;14.97;12.47;;;;;;;8.57;100.00;99865.44;5055697;28;20276;-76
2022/04/30 09:43:29;;;;;;;15.57;12.10;;;;;;;8.70;100.00;99859.63;5054930;28;20189;-76
2022/04/30 09:46:06;;;;;;;18.47;12.40;;;;;;;8.83;100.00;99860.78;5054157;28;20216;-77
2022/04/30 09:54:07;;;;;;;17.37;12.70;;;;;;;8.59;100.00;99855.69;5063250;28;20248;-77
2022/04/30 09:56:37;;;;;;;15.53;13.20;;;;;;;8.66;100.00;99850.97;5051058;28;20193;-77
2022/04/30 09:59:08;;;;;;;16.03;13.20;;;;;;;8.67;100.00;99851.81;5053133;28;20694;-76
2022/04/30 10:01:39;;;;;;;17.77;12.57;;;;;;;8.65;100.00;99845.75;5049214;28;20211;-77
2022/04/30 10:04:10;;;;;;;15.23;12.63;;;;;;;8.58;100.00;99850.44;5051680;28;20201;-77
2022/04/30 10:06:42;;;;;;;15.97;12.70;;;;;;;8.58;100.00;99850.44;5055799;28;20196;-77
2022/04/30 10:09:19;;;;;;;16.67;12.77;;;;;;;8.66;100.00;99850.97;5052227;28;20216;-77
2022/04/30 10:12:00;;;;;;;18.17;13.87;;;;;;;8.76;100.00;99851.41;5055414;28;20189;-77
2022/04/30 10:14:40;;;;;;;20.53;13.73;;;;;;;8.94;100.00;99844.44;5054736;28;20219;-77
2022/04/30 10:17:19;;;;;;;17.50;13.23;;;;;;;8.98;100.00;99852.16;5053813;28;20664;-77
2022/04/30 10:19:58;;;;;;;15.40;12.73;;;;;;;8.80;100.00;99853.00;5054846;28;20203;-77
2022/04/30 10:22:30;;;;;;;17.17;13.53;;;;;;;8.88;100.00;99849.09;5048890;28;20200;-77
2022/04/30 10:25:00;;;;;;;18.00;13.20;;;;;;;8.84;100.00;99846.63;5054431;28;20193;-77
2022/04/30 10:27:40;;;;;;;18.27;12.67;;;;;;;8.83;100.00;99845.78;5055207;28;20193;-77
2022/04/30 10:30:19;;;;;;;19.70;13.50;;;;;;;8.88;100.00;99840.31;5053925;28;20221;-76
2022/04/30 10:33:00;;;;;;;17.93;12.77;;;;;;;8.95;100.00;99839.06;5051574;28;20211;-77
2022/04/30 10:35:33;;;;;;;16.50;13.27;;;;;;;9.10;100.00;99845.44;5055118;28;20357;-77
2022/04/30 10:38:26;;;;;;;16.33;13.87;;;;;;;9.23;100.00;99848.34;5054669;28;20280;-77
2022/04/30 10:41:02;;;;;;;18.13;13.27;;;;;;;9.34;100.00;99853.97;5056428;28;20196;-77
2022/04/30 10:43:34;;;;;;;20.30;13.23;;;;;;;9.25;100.00;99847.34;5054619;28;20193;-77
2022/04/30 10:46:05;;;;;;;17.77;13.00;;;;;;;9.44;100.00;99844.66;5053408;28;20204;-77
2022/04/30 10:48:35;;;;;;;16.63;12.77;;;;;;;9.65;100.00;99837.47;5053365;28;20209;-77
2022/04/30 10:51:07;;;;;;;15.00;12.80;;;;;;;9.52;100.00;99826.66;5048172;28;20696;-77
2022/04/30 10:53:42;;;;;;;14.93;12.10;;;;;;;9.59;100.00;99835.16;5049834;28;20223;-77
2022/04/30 10:56:11;;;;;;;16.00;12.23;;;;;;;9.63;100.00;99823.47;5053323;28;20221;-77
2022/04/30 10:58:43;;;;;;;17.27;11.77;;;;;;;9.65;100.00;99822.50;5052215;28;20186;-77
2022/04/30 11:01:12;;;;;;;14.67;11.33;;;;;;;9.66;100.00;99818.91;5055492;28;20193;-77
2022/04/30 11:03:42;;;;;;;16.17;11.00;;;;;;;9.72;100.00;99818.59;5053111;28;20207;-77
2022/04/30 11:06:12;;;;;;;18.13;11.33;;;;;;;9.77;100.00;99826.31;5052138;28;20280;-77
2022/04/30 11:08:58;;;;;;;15.93;12.40;;;;;;;9.95;100.00;99828.03;5053262;28;20197;-77
2022/04/30 11:11:27;;;;;;;15.93;11.93;;;;;;;9.95;100.00;99817.44;5054158;28;20189;-77
2022/04/30 11:13:59;;;;;;;14.53;11.37;;;;;;;10.11;100.00;99820.16;5052288;28;20204;-77
2022/04/30 11:16:32;;;;;;;13.13;11.37;;;;;;;9.85;100.00;99818.00;5017325;28;20245;-77
2022/04/30 11:19:08;;;;;;;16.17;11.67;;;;;;;9.85;100.00;99818.00;5052893;28;20188;-77
2022/04/30 11:21:38;;;;;;;15.87;11.70;;;;;;;10.00;100.00;99804.81;5055284;28;20287;-77
2022/04/30 11:24:10;;;;;;;15.33;11.70;;;;;;;9.81;100.00;99811.13;5051638;28;20659;-77
2022/04/30 11:26:39;;;;;;;13.93;11.83;;;;;;;9.71;100.00;99811.59;5051819;28;20690;-77
2022/04/30 11:29:09;;;;;;;16.50;11.20;;;;;;;9.92;100.00;99796.41;5052859;28;20698;-77
2022/04/30 11:31:39;;;;;;;15.23;11.97;;;;;;;10.07;100.00;99799.22;5055914;28;20233;-78
2022/04/30 11:34:09;;;;;;;14.40;12.33;;;;;;;10.23;100.00;99797.50;5052666;28;20227;-77
2022/04/30 11:36:42;;;;;;;13.37;10.93;;;;;;;10.06;100.00;99801.00;5049748;28;20276;-77
2022/04/30 11:39:13;;;;;;;17.27;11.80;;;;;;;10.25;100.00;99799.16;5048784;28;20201;-77
2022/04/30 11:41:43;;;;;;;18.27;11.70;;;;;;;10.41;100.00;99790.38;5053352;28;20691;-77
2022/04/30 11:44:12;;;;;;;12.97;11.57;;;;;;;10.42;100.00;99792.09;5053681;28;20196;-77
2022/04/30 11:46:41;;;;;;;17.43;12.60;;;;;;;10.52;100.00;99793.34;5052585;28;20236;-77
2022/04/30 11:49:17;;;;;;;15.50;11.43;;;;;;;10.17;100.00;99796.00;5053604;28;20204;-77
2022/04/30 11:52:07;;;;;;;16.27;11.87;;;;;;;10.07;100.00;99797.44;5053782;28;20232;-77
2022/04/30 11:54:39;;;;;;;15.97;11.50;;;;;;;10.03;100.00;99794.06;5052320;28;20203;-77
2022/04/30 11:57:08;;;;;;;14.53;11.97;;;;;;;10.09;100.00;99798.19;5053173;28;20702;-77
2022/04/30 11:59:38;;;;;;;15.93;12.80;;;;;;;10.17;100.00;99785.44;5053586;28;20276;-77
2022/04/30 12:02:09;;;;;;;16.97;12.07;;;;;;;10.16;100.00;99794.31;5050925;28;20197;-77
2022/04/30 12:04:41;;;;;;;14.20;11.97;;;;;;;9.96;100.00;99789.19;5049181;28;20248;-77
2022/04/30 12:07:11;;;;;;;14.53;12.50;;;;;;;10.16;100.00;99791.66;5048969;28;20628;-77